Time;durP1;ratioP1;P1;durP2;ratioP2;P2;SDS_P1;SDS_P2;PMS_P1;PMS_P2;Temp;Humidity;BMP_temperature;BMP_pressure;BME280_temperature;BME280_humidity;BME280_pressure;Samples;Min_cycle;Max_cycle;Signal;HPM_P1;HPM_P2
2022/12/12 00:00:33;;;;;;;36.47;18.25;;;0.90;99.90;;;;;;4865440;29;20505;-71
2022/12/12 00:02:59;;;;;;;40.55;19.92;;;0.90;99.90;;;;;;4865270;29;20029;-70
2022/12/12 00:05:25;;;;;;;41.60;20.20;;;1.00;99.90;;;;;;4865922;29;20029;-71
2022/12/12 00:07:50;;;;;;;37.37;19.50;;;1.00;99.90;;;;;;4866664;29;20037;-71
2022/12/12 00:10:16;;;;;;;40.37;18.53;;;0.90;99.90;;;;;;4867310;29;20428;-71
2022/12/12 00:12:41;;;;;;;42.85;19.52;;;0.90;99.90;;;;;;4866160;29;20490;-71
2022/12/12 00:15:07;;;;;;;44.70;20.90;;;0.70;99.90;;;;;;4875501;29;20033;-70
2022/12/12 00:17:33;;;;;;;46.17;20.50;;;0.70;99.90;;;;;;4883204;29;20100;-71
2022/12/12 00:19:59;;;;;;;39.63;19.50;;;0.80;99.90;;;;;;4883560;29;20088;-71
2022/12/12 00:22:24;;;;;;;40.87;19.67;;;0.80;99.90;;;;;;4882269;29;20032;-71
2022/12/12 00:24:50;;;;;;;35.87;18.43;;;0.70;99.90;;;;;;4882477;29;20029;-70
2022/12/12 00:27:15;;;;;;;40.93;19.90;;;0.80;99.90;;;;;;4882528;29;20033;-71
2022/12/12 00:29:41;;;;;;;38.73;19.70;;;0.70;99.90;;;;;;4883328;29;20028;-72
2022/12/12 00:32:08;;;;;;;38.80;18.80;;;0.70;99.90;;;;;;4886465;29;20028;-70
2022/12/12 00:34:34;;;;;;;41.85;20.20;;;0.80;99.90;;;;;;4886291;29;20112;-71
2022/12/12 00:36:59;;;;;;;37.23;18.77;;;0.70;99.90;;;;;;4884577;29;20037;-71
2022/12/12 00:39:25;;;;;;;38.23;18.30;;;0.80;99.90;;;;;;4884117;29;20025;-71
2022/12/12 00:41:51;;;;;;;39.33;18.60;;;0.80;99.90;;;;;;4883414;29;20036;-71
2022/12/12 00:44:17;;;;;;;35.27;17.70;;;0.80;99.90;;;;;;4880090;29;20559;-70
2022/12/12 00:46:43;;;;;;;41.53;18.13;;;0.80;99.90;;;;;;4865903;29;20030;-70
2022/12/12 00:49:09;;;;;;;36.45;18.73;;;0.80;99.90;;;;;;4866224;29;20483;-70
2022/12/12 00:51:35;;;;;;;36.73;17.03;;;0.70;99.90;;;;;;4866316;29;20045;-71
2022/12/12 00:54:00;;;;;;;39.60;19.30;;;0.70;99.90;;;;;;4866415;29;20029;-72
2022/12/12 00:56:28;;;;;;;40.03;17.97;;;0.70;99.90;;;;;;4866150;29;20060;-71
2022/12/12 00:58:53;;;;;;;44.70;20.15;;;0.70;99.90;;;;;;4870220;29;20060;-71
2022/12/12 01:01:23;;;;;;;46.57;20.60;;;0.80;99.90;;;;;;4864715;29;20041;-71
2022/12/12 01:03:49;;;;;;;41.55;19.65;;;0.60;99.90;;;;;;4863225;29;20502;-71
2022/12/12 01:06:15;;;;;;;43.78;19.75;;;0.50;99.90;;;;;;4862562;29;20029;-71
2022/12/12 01:08:41;;;;;;;40.78;19.63;;;0.60;99.90;;;;;;4862827;29;20085;-70
2022/12/12 01:11:08;;;;;;;39.60;19.30;;;0.70;99.90;;;;;;4862594;29;20062;-71
2022/12/12 01:13:34;;;;;;;42.83;20.85;;;0.50;99.90;;;;;;4866802;29;20445;-72
2022/12/12 01:16:00;;;;;;;43.65;19.65;;;0.40;99.90;;;;;;4866548;29;20108;-71
2022/12/12 01:18:25;;;;;;;41.03;19.33;;;0.50;99.90;;;;;;4867363;29;20487;-72
2022/12/12 01:20:51;;;;;;;36.03;19.00;;;0.50;99.90;;;;;;4866718;29;20045;-71
2022/12/12 01:23:17;;;;;;;42.63;19.40;;;0.50;99.90;;;;;;4866578;29;20037;-72
2022/12/12 01:25:42;;;;;;;39.90;18.73;;;0.40;99.90;;;;;;4866066;29;20263;-71
2022/12/12 01:28:08;;;;;;;40.97;19.50;;;0.40;99.90;;;;;;4867695;29;20025;-71
2022/12/12 01:30:34;;;;;;;41.47;18.83;;;0.40;99.90;;;;;;4862775;29;20053;-70
2022/12/12 01:33:00;;;;;;;37.65;19.38;;;0.30;99.90;;;;;;4865215;29;20037;-71
2022/12/12 01:35:26;;;;;;;40.73;20.10;;;0.20;99.90;;;;;;4865674;29;20376;-70
2022/12/12 01:37:53;;;;;;;38.25;18.38;;;0.10;99.90;;;;;;4866945;29;20482;-71
2022/12/12 01:40:20;;;;;;;;;;;0.10;99.90;;;;;;4866808;29;20037;-71
2022/12/12 01:42:45;;;;;;;41.97;18.15;;;0.10;99.90;;;;;;4863942;29;20281;-71
2022/12/12 01:45:49;;;;;;;35.60;17.10;;;0.10;99.90;;;;;;4862747;29;20037;-71
2022/12/12 01:48:14;;;;;;;43.15;18.42;;;0.00;99.90;;;;;;4862138;29;20278;-71
2022/12/12 01:50:42;;;;;;;37.13;17.73;;;-0.10;99.90;;;;;;4863151;29;20120;-72
2022/12/12 01:53:09;;;;;;;38.40;16.33;;;-0.20;99.90;;;;;;4866192;29;20094;-71
2022/12/12 01:55:35;;;;;;;37.47;17.30;;;-0.20;99.90;;;;;;4864387;29;20049;-71
2022/12/12 01:58:02;;;;;;;40.60;18.20;;;-0.20;99.90;;;;;;4862929;29;20030;-70
2022/12/12 02:00:27;;;;;;;;;;;-0.10;99.90;;;;;;4894244;23;20553;-69
2022/12/12 02:02:54;;;;;;;40.78;18.08;;;-0.10;99.90;;;;;;4890203;29;20055;-67
2022/12/12 02:05:28;;;;;;;38.33;17.35;;;-0.20;99.90;;;;;;4880490;29;20389;-67
2022/12/12 02:07:54;;;;;;;38.55;19.35;;;-0.30;99.90;;;;;;4880431;29;20029;-67
2022/12/12 02:10:20;;;;;;;35.97;17.92;;;-0.40;99.90;;;;;;4880413;29;20029;-67
2022/12/12 02:12:46;;;;;;;45.23;19.40;;;-0.50;99.90;;;;;;4879034;29;20126;-67
2022/12/12 02:15:12;;;;;;;43.65;19.77;;;-0.50;99.90;;;;;;4895204;29;20085;-68
2022/12/12 02:18:07;;;;;;;37.42;17.30;;;-0.50;99.90;;;;;;4879935;29;20045;-67
2022/12/12 02:20:35;;;;;;;38.85;17.98;;;-0.50;99.90;;;;;;4878788;29;20029;-67
2022/12/12 02:23:29;;;;;;;39.05;17.90;;;-0.40;99.90;;;;;;4880111;29;20112;-67
2022/12/12 02:26:11;;;;;;;42.42;18.35;;;-0.30;99.90;;;;;;4883410;29;20025;-67
2022/12/12 02:29:00;;;;;;;40.63;18.00;;;-0.30;99.90;;;;;;4882581;29;20029;-67
2022/12/12 02:31:45;;;;;;;40.38;18.23;;;-0.30;99.90;;;;;;4895349;29;20137;-68
2022/12/12 02:34:46;;;;;;;43.33;18.80;;;-0.30;99.90;;;;;;4900504;29;20024;-68
2022/12/12 02:37:29;;;;;;;37.55;17.88;;;-0.50;99.90;;;;;;4896733;29;20474;-67
2022/12/12 02:40:19;;;;;;;36.92;16.77;;;-0.60;99.90;;;;;;4898716;29;20031;-68
2022/12/12 02:43:17;;;;;;;38.03;17.73;;;-0.50;99.90;;;;;;4899211;29;20029;-68
2022/12/12 02:45:56;;;;;;;37.70;16.35;;;-0.50;99.90;;;;;;4898409;29;20040;-68
2022/12/12 02:48:33;;;;;;;38.80;17.60;;;-0.50;99.90;;;;;;4896982;29;20039;-68
2022/12/12 02:51:03;;;;;;;40.97;17.85;;;-0.60;99.90;;;;;;4898037;29;20025;-68
2022/12/12 02:53:28;;;;;;;38.67;17.60;;;-0.70;99.90;;;;;;4902435;29;20028;-68
2022/12/12 02:56:05;;;;;;;38.63;17.57;;;-0.80;99.90;;;;;;4902272;29;20029;-68
2022/12/12 02:58:35;;;;;;;35.33;16.42;;;-0.80;99.90;;;;;;4901322;29;20371;-68
2022/12/12 03:01:20;;;;;;;40.40;18.95;;;-0.80;99.90;;;;;;4901805;29;20075;-68
2022/12/12 03:10:15;;;;;;;41.63;18.13;;;-0.90;99.90;;;;;;4902464;29;20083;-68
2022/12/12 03:12:47;;;;;;;43.15;18.75;;;-0.90;99.90;;;;;;4902203;29;20028;-67
2022/12/12 03:15:23;;;;;;;40.47;18.45;;;-0.90;99.90;;;;;;4901851;29;20053;-67
2022/12/12 03:18:08;;;;;;;42.70;18.73;;;-0.90;99.90;;;;;;4900528;29;20025;-67
2022/12/12 03:21:02;;;;;;;38.20;18.10;;;-0.90;99.90;;;;;;4900592;29;20119;-67
2022/12/12 03:23:34;;;;;;;40.17;18.17;;;-0.80;99.90;;;;;;4901711;29;20067;-67
2022/12/12 03:26:27;;;;;;;39.83;17.25;;;-0.70;99.90;;;;;;4900382;29;20123;-67
2022/12/12 03:29:13;;;;;;;40.83;18.52;;;-0.70;99.90;;;;;;4892913;29;20032;-67
2022/12/12 03:31:43;;;;;;;40.22;18.42;;;-0.70;99.90;;;;;;4901520;29;20032;-67
2022/12/12 03:34:16;;;;;;;39.80;16.58;;;-0.60;99.90;;;;;;4902108;29;20116;-67
2022/12/12 03:36:47;;;;;;;36.00;17.67;;;-0.60;99.90;;;;;;4901500;29;20025;-67
2022/12/12 03:39:35;;;;;;;41.80;18.05;;;-0.60;99.90;;;;;;4901397;29;20029;-67
2022/12/12 03:42:10;;;;;;;37.80;16.92;;;-0.60;99.90;;;;;;4901357;29;20035;-67
2022/12/12 03:44:45;;;;;;;34.75;16.13;;;-0.70;99.90;;;;;;4900121;29;20060;-67
2022/12/12 03:47:16;;;;;;;36.60;16.17;;;-0.60;99.90;;;;;;4901089;29;20025;-67
2022/12/12 03:49:51;;;;;;;33.83;15.32;;;-0.60;99.90;;;;;;4900278;29;20051;-67
2022/12/12 03:52:24;;;;;;;33.63;15.60;;;-0.80;99.90;;;;;;4903391;29;20021;-67
2022/12/12 03:55:02;;;;;;;37.65;16.35;;;-0.80;99.90;;;;;;4903113;29;20385;-67
2022/12/12 03:57:42;;;;;;;30.95;15.25;;;-0.70;99.90;;;;;;4901927;29;20157;-67
2022/12/12 04:00:12;;;;;;;36.05;15.23;;;-0.70;99.90;;;;;;4900068;29;20044;-67
2022/12/12 04:02:53;;;;;;;33.00;16.42;;;-0.80;99.90;;;;;;4901138;29;20028;-67
2022/12/12 04:06:25;;;;;;;34.60;15.02;;;-0.80;99.90;;;;;;4902037;29;20025;-67
2022/12/12 04:08:27;;;;;;;36.13;15.75;;;-0.80;99.90;;;;;;4901852;29;20044;-67
2022/12/12 04:14:03;;;;;;;33.85;14.75;;;-0.80;99.90;;;;;;4908292;29;20039;-67
2022/12/12 04:16:34;;;;;;;37.15;16.00;;;-0.80;99.90;;;;;;4906215;29;20032;-68
2022/12/12 04:23:13;;;;;;;31.25;14.77;;;-0.90;99.90;;;;;;4902899;29;20025;-67
2022/12/12 04:25:03;;;;;;;33.38;15.20;;;-1.00;99.90;;;;;;4900992;29;20080;-68
2022/12/12 04:27:42;;;;;;;34.10;15.43;;;-1.00;99.90;;;;;;4901119;29;20028;-68
2022/12/12 04:30:14;;;;;;;31.60;13.27;;;-0.90;99.90;;;;;;4902568;29;20490;-67
2022/12/12 04:32:51;;;;;;;33.72;15.32;;;-0.90;99.90;;;;;;4902017;29;20107;-68
2022/12/12 04:35:26;;;;;;;32.60;14.75;;;-1.00;99.90;;;;;;4901963;29;20029;-67
2022/12/12 04:37:57;;;;;;;31.27;15.57;;;-1.10;99.90;;;;;;4900811;29;20029;-68
2022/12/12 04:40:36;;;;;;;28.92;14.23;;;-1.10;99.90;;;;;;4900647;29;20111;-69
2022/12/12 04:43:16;;;;;;;32.40;14.05;;;-1.30;99.90;;;;;;4901487;29;20040;-67
2022/12/12 04:46:04;;;;;;;30.50;13.40;;;-1.30;99.90;;;;;;4901587;29;20025;-67
2022/12/12 04:48:45;;;;;;;31.25;13.73;;;-1.40;99.90;;;;;;4901498;29;20061;-67
2022/12/12 04:51:15;;;;;;;28.65;13.20;;;-1.40;99.90;;;;;;4900504;29;20033;-67
2022/12/12 04:54:09;;;;;;;25.10;12.27;;;-1.40;99.90;;;;;;4900712;29;20080;-67
2022/12/12 04:56:37;;;;;;;28.33;13.10;;;-1.60;99.90;;;;;;4900518;29;20103;-67
2022/12/12 04:59:04;;;;;;;26.02;11.82;;;-1.70;99.90;;;;;;4898993;29;20036;-67
2022/12/12 05:01:53;;;;;;;25.38;12.18;;;-1.60;99.90;;;;;;4899985;29;20036;-67
2022/12/12 05:04:40;;;;;;;26.90;11.80;;;-1.50;99.90;;;;;;4898783;29;20028;-67
2022/12/12 05:07:15;;;;;;;29.55;13.23;;;-1.50;99.90;;;;;;4899892;29;20028;-67
2022/12/12 05:09:41;;;;;;;28.95;12.52;;;-1.40;99.90;;;;;;4900062;29;20029;-67
2022/12/12 05:12:07;;;;;;;25.33;12.43;;;-1.50;99.90;;;;;;4899794;29;20029;-67
2022/12/12 05:14:33;;;;;;;25.98;12.68;;;-1.60;99.90;;;;;;4899503;29;20111;-67
2022/12/12 05:17:05;;;;;;;31.60;11.67;;;-1.50;99.90;;;;;;4899539;29;20064;-68
2022/12/12 05:19:31;;;;;;;28.60;12.55;;;-1.60;99.90;;;;;;4899953;29;20092;-68
2022/12/12 05:21:56;;;;;;;30.83;12.73;;;-1.60;99.90;;;;;;4900376;29;20059;-67
2022/12/12 05:24:22;;;;;;;25.87;12.53;;;-1.70;99.90;;;;;;4901570;29;20063;-67
2022/12/12 05:26:47;;;;;;;29.03;13.20;;;-1.70;99.90;;;;;;4903695;29;20028;-67
2022/12/12 05:29:13;;;;;;;28.90;13.30;;;-1.80;99.90;;;;;;4900612;29;20056;-67
2022/12/12 05:31:38;;;;;;;24.63;12.10;;;-1.90;99.90;;;;;;4899520;29;20183;-68
2022/12/12 05:34:04;;;;;;;28.50;13.10;;;-1.90;99.90;;;;;;4899470;29;20080;-67
2022/12/12 05:36:29;;;;;;;30.60;12.97;;;-1.90;99.90;;;;;;4899216;29;20025;-67
2022/12/12 05:38:55;;;;;;;27.63;12.43;;;-2.00;99.90;;;;;;4899457;29;20036;-67
2022/12/12 05:41:21;;;;;;;29.73;13.07;;;-1.80;99.90;;;;;;4899361;29;20045;-67
2022/12/12 05:43:46;;;;;;;27.50;12.23;;;-1.70;99.90;;;;;;4899113;29;20130;-67
2022/12/12 05:46:12;;;;;;;26.50;13.10;;;-1.70;99.90;;;;;;4899386;29;20032;-67
2022/12/12 05:48:37;;;;;;;28.17;12.83;;;-1.90;99.90;;;;;;4903211;29;20021;-68
2022/12/12 05:51:03;;;;;;;29.87;11.77;;;-2.00;99.90;;;;;;4903404;29;20025;-68
2022/12/12 05:53:29;;;;;;;29.73;12.90;;;-2.00;99.90;;;;;;4886235;29;20047;-65
2022/12/12 05:55:54;;;;;;;32.93;14.50;;;-2.00;99.90;;;;;;4883282;29;20081;-65
2022/12/12 05:58:20;;;;;;;27.80;13.00;;;-2.00;99.90;;;;;;4888285;29;20363;-66
2022/12/12 06:00:47;;;;;;;24.90;11.93;;;-2.00;99.90;;;;;;4898710;29;20075;-65
2022/12/12 06:03:13;;;;;;;27.70;12.68;;;-2.10;99.90;;;;;;4895530;29;20036;-66
2022/12/12 06:05:39;;;;;;;25.40;12.68;;;-2.00;99.90;;;;;;4898173;29;20025;-65
2022/12/12 06:08:05;;;;;;;36.73;15.47;;;-2.10;99.90;;;;;;4901345;29;20032;-66
2022/12/12 06:10:30;;;;;;;35.13;13.27;;;-2.10;99.90;;;;;;4899854;29;20052;-66
2022/12/12 06:12:56;;;;;;;24.97;11.97;;;-2.00;99.90;;;;;;4901098;29;20478;-66
2022/12/12 06:15:21;;;;;;;28.37;11.60;;;-1.80;99.90;;;;;;4899808;29;20029;-66
2022/12/12 06:17:50;;;;;;;28.27;12.83;;;-1.70;99.90;;;;;;4897904;29;20036;-66
2022/12/12 06:20:16;;;;;;;31.65;13.95;;;-1.80;99.90;;;;;;4898182;29;20522;-67
2022/12/12 06:22:42;;;;;;;25.38;11.32;;;-1.70;99.90;;;;;;4888999;29;20033;-67
2022/12/12 06:25:08;;;;;;;22.47;10.53;;;-1.70;99.90;;;;;;4879467;29;20115;-67
2022/12/12 06:27:33;;;;;;;20.08;10.02;;;-1.50;99.90;;;;;;4878348;29;20088;-66
2022/12/12 06:29:59;;;;;;;23.70;10.27;;;-1.50;99.90;;;;;;4881276;29;20032;-67
2022/12/12 06:32:25;;;;;;;22.53;10.23;;;-1.50;99.90;;;;;;4896862;29;20338;-67
2022/12/12 06:34:50;;;;;;;24.67;10.90;;;-1.40;99.90;;;;;;4897369;29;20028;-68
2022/12/12 06:37:16;;;;;;;19.67;10.23;;;-1.40;99.90;;;;;;4898382;29;20028;-69
2022/12/12 06:39:42;;;;;;;26.87;15.27;;;-1.40;99.90;;;;;;4898931;29;20088;-67
2022/12/12 06:42:08;;;;;;;19.50;11.10;;;-1.40;99.90;;;;;;4899456;29;20115;-67
2022/12/12 06:44:34;;;;;;;;;;;-1.40;99.90;;;;;;4898598;29;20063;-67
2022/12/12 06:47:00;;;;;;;19.52;8.82;;;-1.30;99.90;;;;;;4897451;29;20006;-67
2022/12/12 06:49:25;;;;;;;22.70;9.83;;;-1.20;99.90;;;;;;4912819;29;20029;-67
2022/12/12 06:51:51;;;;;;;33.47;13.93;;;-1.30;99.90;;;;;;4898259;29;20057;-67
2022/12/12 06:54:17;;;;;;;32.67;14.00;;;-1.40;99.90;;;;;;4897341;29;20028;-67
2022/12/12 06:56:44;;;;;;;31.08;13.82;;;-1.50;99.90;;;;;;4896730;29;20039;-67
2022/12/12 06:59:11;;;;;;;;;;;-1.60;99.90;;;;;;4898508;29;20029;-67
2022/12/12 07:01:36;;;;;;;19.55;8.70;;;-1.50;99.90;;;;;;4896704;29;19962;-67
2022/12/12 07:04:02;;;;;;;19.92;9.15;;;-1.50;99.90;;;;;;4900867;29;20028;-66
2022/12/12 07:06:28;;;;;;;18.75;9.20;;;-1.50;99.90;;;;;;4882917;29;20399;-67
2022/12/12 07:08:54;;;;;;;55.77;32.10;;;-1.50;99.90;;;;;;4879665;29;20021;-66
2022/12/12 07:11:22;;;;;;;25.80;12.77;;;-1.50;99.90;;;;;;4878386;29;20084;-67
2022/12/12 07:13:49;;;;;;;22.17;11.40;;;-1.50;99.90;;;;;;4880289;29;20169;-66
2022/12/12 07:16:15;;;;;;;25.65;13.18;;;-1.50;99.90;;;;;;4880551;29;20029;-67
2022/12/12 07:18:42;;;;;;;19.65;10.00;;;-1.50;99.90;;;;;;4880242;29;20052;-67
2022/12/12 07:21:12;;;;;;;18.17;9.55;;;-1.40;99.90;;;;;;4879313;29;20037;-67
2022/12/12 07:23:37;;;;;;;19.08;8.88;;;-1.50;99.90;;;;;;4879664;29;20052;-68
2022/12/12 07:26:08;;;;;;;20.83;9.40;;;-1.50;99.90;;;;;;4879262;29;20085;-67
2022/12/12 07:28:33;;;;;;;20.75;9.57;;;-1.50;99.90;;;;;;4878640;29;20047;-67
2022/12/12 07:31:00;;;;;;;19.90;9.67;;;-1.40;99.90;;;;;;4886248;29;20028;-68
2022/12/12 07:33:26;;;;;;;18.73;9.63;;;-1.40;99.90;;;;;;4899824;29;20024;-67
2022/12/12 07:35:57;;;;;;;21.45;9.82;;;-1.40;99.90;;;;;;4898734;29;20080;-65
2022/12/12 07:38:23;;;;;;;19.20;9.23;;;-1.50;99.90;;;;;;4900940;29;20402;-66
2022/12/12 07:40:48;;;;;;;23.40;10.47;;;-1.50;99.90;;;;;;4902056;29;20036;-66
2022/12/12 07:43:14;;;;;;;21.07;9.40;;;-1.30;99.90;;;;;;4901673;29;20033;-66
2022/12/12 07:45:44;;;;;;;25.27;9.90;;;-1.30;99.90;;;;;;4901636;29;20028;-66
2022/12/12 07:48:09;;;;;;;23.02;11.05;;;-1.30;99.90;;;;;;4899777;29;20040;-66
2022/12/12 07:50:37;;;;;;;22.77;10.57;;;-1.30;99.90;;;;;;4901661;29;20036;-66
2022/12/12 07:53:02;;;;;;;27.48;14.10;;;-1.20;99.90;;;;;;4901362;29;20474;-66
2022/12/12 07:55:28;;;;;;;22.47;10.40;;;-1.20;99.90;;;;;;4901662;29;20044;-67
2022/12/12 07:57:54;;;;;;;22.48;11.52;;;-1.10;99.90;;;;;;4901308;29;20433;-67
2022/12/12 08:00:21;;;;;;;20.65;9.77;;;-1.10;99.90;;;;;;4924226;23;20044;-70
2022/12/12 08:02:47;;;;;;;24.15;11.07;;;-1.20;99.90;;;;;;4901484;29;20037;-69
2022/12/12 08:05:13;;;;;;;23.98;11.07;;;-1.30;99.90;;;;;;4905730;29;20446;-71
2022/12/12 08:07:39;;;;;;;33.10;10.87;;;-1.20;99.90;;;;;;4909278;29;20052;-71
2022/12/12 08:10:05;;;;;;;21.40;10.17;;;-1.10;99.90;;;;;;4915011;29;20537;-70
2022/12/12 08:12:31;;;;;;;23.50;11.13;;;-0.90;99.90;;;;;;4906060;29;20024;-70
2022/12/12 08:14:56;;;;;;;26.73;11.75;;;-0.90;99.90;;;;;;4894879;29;20100;-70
2022/12/12 08:17:22;;;;;;;25.10;10.80;;;-1.00;99.90;;;;;;4887214;29;20120;-70
2022/12/12 08:19:48;;;;;;;23.17;11.00;;;-1.00;99.90;;;;;;4885839;29;20084;-71
2022/12/12 08:22:14;;;;;;;25.93;11.50;;;-0.90;99.90;;;;;;4887564;29;20553;-71
2022/12/12 08:24:39;;;;;;;23.30;11.13;;;-0.90;99.90;;;;;;4885942;29;20060;-71
2022/12/12 08:27:05;;;;;;;22.37;11.37;;;-1.00;99.90;;;;;;4887242;29;20486;-70
2022/12/12 08:29:30;;;;;;;24.73;11.70;;;-1.10;99.90;;;;;;4883711;29;20286;-70
2022/12/12 08:31:56;;;;;;;23.57;10.97;;;-1.00;99.90;;;;;;4884170;29;20029;-71
2022/12/12 08:34:22;;;;;;;21.90;10.60;;;-0.80;99.90;;;;;;4883847;29;20065;-71
2022/12/12 08:36:48;;;;;;;26.73;11.83;;;-0.70;99.90;;;;;;4886801;29;20306;-71
2022/12/12 08:39:17;;;;;;;26.38;11.02;;;-0.80;99.90;;;;;;4882814;29;20072;-70
2022/12/12 08:41:48;;;;;;;27.23;12.23;;;-0.90;99.90;;;;;;4881990;29;20036;-71
2022/12/12 08:44:16;;;;;;;24.35;12.40;;;-0.80;99.90;;;;;;4882518;29;20044;-71
2022/12/12 08:46:41;;;;;;;26.75;10.77;;;-0.80;99.90;;;;;;4900317;29;20067;-71
2022/12/12 08:49:08;;;;;;;25.47;11.93;;;-0.80;99.90;;;;;;4898840;29;20025;-70
2022/12/12 08:51:37;;;;;;;28.95;13.10;;;-0.60;99.90;;;;;;4899612;29;20029;-72
2022/12/12 08:54:02;;;;;;;25.42;12.07;;;-0.80;99.90;;;;;;4900951;29;20172;-70
2022/12/12 08:56:28;;;;;;;24.73;11.07;;;-0.90;99.90;;;;;;4903892;29;20061;-71
2022/12/12 08:58:53;;;;;;;29.37;13.13;;;-0.90;99.90;;;;;;4902147;29;20379;-71
2022/12/12 09:01:22;;;;;;;29.13;13.80;;;-0.90;99.90;;;;;;4902238;29;20041;-71
2022/12/12 09:03:49;;;;;;;27.42;13.32;;;-0.60;99.90;;;;;;4889045;29;20478;-71
2022/12/12 09:06:15;;;;;;;23.95;11.68;;;-0.60;99.90;;;;;;4882409;29;20367;-70
2022/12/12 09:08:42;;;;;;;26.08;11.98;;;-0.70;99.90;;;;;;4880420;29;20028;-71
2022/12/12 09:11:08;;;;;;;25.60;12.80;;;-0.80;99.90;;;;;;4882629;29;20466;-71
2022/12/12 09:13:34;;;;;;;28.95;14.43;;;-0.80;99.90;;;;;;4880938;29;20037;-72
2022/12/12 09:16:00;;;;;;;30.95;13.27;;;-0.90;99.90;;;;;;4895960;29;20025;-71
2022/12/12 09:18:26;;;;;;;25.20;11.82;;;-0.70;99.90;;;;;;4901506;29;20390;-71
2022/12/12 09:20:53;;;;;;;25.63;13.30;;;-0.70;99.90;;;;;;4901280;29;20035;-71
2022/12/12 09:23:21;;;;;;;25.63;12.40;;;-0.60;99.90;;;;;;4899474;29;20030;-71
2022/12/12 09:25:47;;;;;;;27.65;14.00;;;-0.60;99.90;;;;;;4900476;29;20056;-71
2022/12/12 09:28:14;;;;;;;28.50;14.15;;;-0.20;99.90;;;;;;4899482;29;20459;-70
2022/12/12 09:30:40;;;;;;;32.10;13.38;;;0.00;99.90;;;;;;4898904;29;20033;-70
2022/12/12 09:33:06;;;;;;;29.90;13.98;;;0.00;99.90;;;;;;4898928;29;20076;-70
2022/12/12 09:35:32;;;;;;;33.00;15.63;;;0.00;99.90;;;;;;4899187;29;20091;-70
2022/12/12 09:37:57;;;;;;;28.60;14.80;;;0.20;99.90;;;;;;4900330;29;20478;-71
2022/12/12 09:40:38;;;;;;;27.50;13.93;;;0.20;99.90;;;;;;4899190;29;20505;-70
2022/12/12 09:43:04;;;;;;;32.83;14.88;;;0.20;99.90;;;;;;4900202;29;20034;-71
2022/12/12 09:45:34;;;;;;;27.73;13.77;;;0.30;99.90;;;;;;4898895;29;20029;-71
2022/12/12 09:48:03;;;;;;;29.70;14.63;;;0.50;99.90;;;;;;4898324;29;20039;-70
2022/12/12 09:50:36;;;;;;;36.63;16.23;;;0.50;99.90;;;;;;4898375;29;20032;-71
2022/12/12 09:53:05;;;;;;;30.30;14.77;;;0.50;99.90;;;;;;4898137;29;20029;-71
2022/12/12 09:55:46;;;;;;;35.38;14.57;;;0.40;99.90;;;;;;4898052;29;20127;-70
2022/12/12 09:58:45;;;;;;;29.65;14.88;;;0.30;99.90;;;;;;4898368;29;20028;-70
2022/12/12 10:01:53;;;;;;;34.78;16.80;;;0.60;99.90;;;;;;4899625;29;20044;-70
2022/12/12 10:04:39;;;;;;;36.65;17.02;;;0.70;99.90;;;;;;4899980;29;20068;-70
2022/12/12 10:07:20;;;;;;;36.40;17.55;;;1.00;99.90;;;;;;4899914;29;20033;-70
2022/12/12 10:09:59;;;;;;;35.70;17.63;;;0.80;99.90;;;;;;4899757;29;20029;-70
2022/12/12 10:12:25;;;;;;;40.08;19.30;;;0.90;99.90;;;;;;4901015;29;20107;-70
2022/12/12 10:14:53;;;;;;;;;;;0.90;99.90;;;;;;4897388;29;20043;-71
2022/12/12 10:17:41;;;;;;;37.55;17.70;;;0.80;99.90;;;;;;4883185;29;19932;-70
2022/12/12 10:20:19;;;;;;;35.67;16.73;;;0.70;99.90;;;;;;4880346;29;20498;-70
2022/12/12 10:22:59;;;;;;;40.70;19.98;;;0.90;99.90;;;;;;4880415;29;20044;-70
2022/12/12 10:25:32;;;;;;;40.30;18.83;;;0.80;99.90;;;;;;4880883;29;20029;-70
2022/12/12 10:28:15;;;;;;;36.55;17.90;;;0.90;99.90;;;;;;4881584;29;20499;-70
2022/12/12 10:31:15;;;;;;;40.55;18.80;;;1.10;99.90;;;;;;4879556;29;20028;-70
2022/12/12 10:34:04;;;;;;;42.92;19.67;;;1.10;99.90;;;;;;4880308;29;20037;-70
2022/12/12 10:37:11;;;;;;;36.63;19.27;;;1.00;99.90;;;;;;4889440;29;20029;-70
2022/12/12 10:40:13;;;;;;;40.10;18.90;;;0.80;99.90;;;;;;4881001;29;20068;-70
2022/12/12 10:43:00;;;;;;;40.22;18.40;;;0.90;99.90;;;;;;4878659;29;20056;-71
2022/12/12 10:45:39;;;;;;;43.15;19.98;;;0.70;99.90;;;;;;4889662;29;20116;-70
2022/12/12 10:48:05;;;;;;;42.25;18.58;;;0.80;99.90;;;;;;4896814;29;20037;-71
2022/12/12 10:50:39;;;;;;;37.97;18.58;;;0.80;99.90;;;;;;4897241;29;20024;-70
2022/12/12 10:53:07;;;;;;;43.50;18.17;;;0.90;99.90;;;;;;4897594;29;20398;-70
2022/12/12 10:56:01;;;;;;;40.00;19.25;;;0.80;99.90;;;;;;4898529;29;20026;-71
2022/12/12 10:58:38;;;;;;;39.45;18.60;;;1.00;99.90;;;;;;4898323;29;20024;-71
2022/12/12 11:01:10;;;;;;;;;;;1.00;99.90;;;;;;4897268;29;20043;-71
2022/12/12 11:03:40;;;;;;;37.65;18.60;;;1.00;99.90;;;;;;4896663;29;19908;-71
2022/12/12 11:06:11;;;;;;;38.70;18.10;;;0.90;99.90;;;;;;4898254;29;20040;-71
2022/12/12 11:08:36;;;;;;;39.53;18.92;;;0.70;99.90;;;;;;4898383;29;20075;-71
2022/12/12 11:11:18;;;;;;;39.63;19.27;;;0.50;99.90;;;;;;4898200;29;20048;-70
2022/12/12 11:13:45;;;;;;;37.53;17.95;;;0.60;99.90;;;;;;4900309;29;20112;-70
2022/12/12 11:16:18;;;;;;;44.92;19.40;;;0.80;99.90;;;;;;4901853;29;20494;-70
2022/12/12 11:18:57;;;;;;;37.28;17.63;;;1.00;99.90;;;;;;4901841;29;20441;-70
2022/12/12 11:21:23;;;;;;;42.10;18.85;;;1.20;99.90;;;;;;4900573;29;20033;-70
2022/12/12 11:23:53;;;;;;;37.08;18.45;;;1.10;99.90;;;;;;4900798;29;20119;-71
2022/12/12 11:26:21;;;;;;;39.15;18.77;;;1.10;99.90;;;;;;4901089;29;20080;-71
2022/12/12 11:29:01;;;;;;;38.50;19.17;;;1.20;99.90;;;;;;4901088;29;20020;-71
2022/12/12 11:31:33;;;;;;;40.63;19.88;;;1.10;99.90;;;;;;4901428;29;20545;-71
2022/12/12 11:34:02;;;;;;;38.45;18.73;;;1.20;99.90;;;;;;4901563;29;20021;-70
2022/12/12 11:36:34;;;;;;;36.40;17.90;;;1.30;99.90;;;;;;4900167;29;20040;-70
2022/12/12 11:39:11;;;;;;;37.08;18.40;;;1.30;99.90;;;;;;4900079;29;20042;-71
2022/12/12 11:41:57;;;;;;;35.20;18.05;;;1.30;99.90;;;;;;4901394;29;20442;-71
2022/12/12 11:44:26;;;;;;;38.40;18.08;;;1.50;99.90;;;;;;4900076;29;20072;-71
2022/12/12 11:46:52;;;;;;;35.97;17.45;;;1.60;99.90;;;;;;4882177;29;20029;-71
2022/12/12 11:49:19;;;;;;;36.90;17.67;;;1.80;99.90;;;;;;4881599;29;20036;-70
2022/12/12 11:51:45;;;;;;;35.15;18.08;;;1.90;99.90;;;;;;4881526;29;20029;-70
2022/12/12 11:54:14;;;;;;;40.33;18.15;;;1.50;99.90;;;;;;4881791;29;20112;-71
2022/12/12 11:56:43;;;;;;;34.83;16.80;;;1.20;99.90;;;;;;4882978;29;20427;-71
2022/12/12 11:59:21;;;;;;;34.03;17.58;;;1.10;99.90;;;;;;4882376;29;20033;-71
2022/12/12 12:02:07;;;;;;;34.28;17.33;;;1.20;99.90;;;;;;4880557;29;20052;-70
2022/12/12 12:04:45;;;;;;;36.50;18.42;;;1.40;99.90;;;;;;4881433;29;20029;-71
2022/12/12 12:07:53;;;;;;;36.42;18.15;;;1.30;99.90;;;;;;4882402;29;20157;-70
2022/12/12 12:10:21;;;;;;;38.50;18.10;;;1.50;99.90;;;;;;4882834;29;20036;-72
2022/12/12 12:13:06;;;;;;;33.30;18.00;;;1.70;99.90;;;;;;4883667;29;20390;-70
2022/12/12 12:15:45;;;;;;;39.30;19.35;;;1.60;99.90;;;;;;4895374;29;20554;-71
2022/12/12 12:18:13;;;;;;;43.40;21.10;;;1.70;99.90;;;;;;4906642;29;20533;-71
2022/12/12 12:20:57;;;;;;;35.05;18.60;;;1.90;99.90;;;;;;4906313;29;20060;-71
2022/12/12 12:23:38;;;;;;;39.17;17.25;;;2.20;99.90;;;;;;4904399;29;20053;-71
2022/12/12 12:26:16;;;;;;;36.75;19.05;;;2.50;99.90;;;;;;4903526;29;20363;-71
2022/12/12 12:29:03;;;;;;;37.70;19.10;;;2.50;99.90;;;;;;4899669;29;20445;-70
2022/12/12 12:31:54;;;;;;;34.90;17.47;;;2.40;99.90;;;;;;4902240;29;20037;-71
2022/12/12 12:34:46;;;;;;;36.22;17.83;;;2.00;99.90;;;;;;4902004;29;20627;-71
2022/12/12 12:37:23;;;;;;;36.22;18.23;;;1.90;99.90;;;;;;4900203;29;20032;-71
2022/12/12 12:39:58;;;;;;;39.17;19.30;;;1.70;99.90;;;;;;4901990;29;20039;-71
2022/12/12 12:42:42;;;;;;;34.58;17.95;;;1.70;99.90;;;;;;4901560;29;20033;-71
2022/12/12 12:45:35;;;;;;;34.63;17.30;;;1.80;99.90;;;;;;4901495;29;20056;-71
2022/12/12 12:48:16;;;;;;;37.30;18.77;;;2.00;99.90;;;;;;4901228;29;20061;-73
2022/12/12 12:51:02;;;;;;;36.75;17.77;;;2.10;99.90;;;;;;4900743;29;20029;-71
2022/12/12 12:53:42;;;;;;;37.80;17.48;;;1.80;99.90;;;;;;4905574;29;20374;-70
2022/12/12 12:56:13;;;;;;;36.20;18.15;;;1.80;99.90;;;;;;4899479;29;20039;-72
2022/12/12 12:58:44;;;;;;;36.38;18.38;;;1.70;99.90;;;;;;4899580;29;20092;-72
2022/12/12 13:01:18;;;;;;;37.00;18.92;;;1.70;99.90;;;;;;4898979;29;20040;-71
2022/12/12 13:03:51;;;;;;;38.05;17.42;;;1.50;99.90;;;;;;4900049;29;20056;-70
2022/12/12 13:06:39;;;;;;;39.60;18.55;;;1.70;99.90;;;;;;4900344;29;20036;-71
2022/12/12 13:09:10;;;;;;;36.25;17.42;;;1.70;99.90;;;;;;4898735;29;20447;-71